^^
Grace C. Lehan Memorial Weather Station Historical Data
Daily Summary for June 23, 2021 Units:  English    Metric   Both
Daily Weekly Monthly Yearly
  High: Low: Average:
Temperature: 87.6 °F 62.8 °F 75.5 °F
Dew Point: 68 °F 47.9 °F 62.7 °F
Humidity: 81.2% 50.7% 65%
Wind Speed: 9.5mph 0mph 2.4mph
Wind Gust: 33mph - -
Wind- - WSW
Pressure: 30.07 in 29.76 in -
Precipitation: 0.00 in    
 
 
Tabular Data for June 23, 2021
Time Temperature Dew Point Pressure Wind Wind Speed Wind Gust Humidity Rainfall Rate (Hourly) solar
00:09 76.2 °F 61.3 °F 29.94 in WNW 5.2 mph 14 mph 60% 0.00 in 0 W/m2
00:14 76.1 °F 61.2 °F 29.93 in NW 2.9 mph 14 mph 60% 0.00 in 0 W/m2
00:19 76 °F 61.2 °F 29.93 in WNW 3 mph 14 mph 60.1% 0.00 in 0 W/m2
00:24 75.9 °F 61.5 °F 29.93 in WNW 4.7 mph 14 mph 61% 0.00 in 0 W/m2
00:29 75.8 °F 61.4 °F 29.93 in WNW 2.1 mph 14 mph 61% 0.00 in 0 W/m2
00:34 75.7 °F 61.3 °F 29.93 in WNW 4.4 mph 14 mph 61% 0.00 in 0 W/m2
00:39 75.6 °F 61.2 °F 29.93 in WNW 3.9 mph 14 mph 61% 0.00 in 0 W/m2
00:44 75.5 °F 61.4 °F 29.93 in WNW 4.5 mph 17 mph 61.6% 0.00 in 0 W/m2
00:49 75.4 °F 61.5 °F 29.93 in NW 4.2 mph 17 mph 62% 0.00 in 0 W/m2
00:54 75.3 °F 61.4 °F 29.93 in WNW 3.8 mph 17 mph 62% 0.00 in 0 W/m2
00:59 75.2 °F 61.6 °F 29.93 in WNW 1.1 mph 17 mph 62.8% 0.00 in 0 W/m2
01:04 75.1 °F 61.6 °F 29.93 in WNW 2 mph 17 mph 63% 0.00 in 0 W/m2
01:09 74.9 °F 61.5 °F 29.93 in WNW 3.8 mph 12 mph 63% 0.00 in 0 W/m2
01:14 74.9 °F 61.5 °F 29.93 in NW 3.4 mph 13 mph 63.1% 0.00 in 0 W/m2
01:19 74.7 °F 61.7 °F 29.93 in NW 3.4 mph 13 mph 63.8% 0.00 in 0 W/m2
01:24 74.7 °F 61.7 °F 29.93 in NNW 3.1 mph 13 mph 64% 0.00 in 0 W/m2
01:29 74.6 °F 61.6 °F 29.93 in NW 1.6 mph 13 mph 64% 0.00 in 0 W/m2
01:34 74.5 °F 61.6 °F 29.93 in NE 0.1 mph 13 mph 64% 0.00 in 0 W/m2
01:39 74.4 °F 61.5 °F 29.93 in NNE 0.2 mph 4 mph 64% 0.00 in 0 W/m2
01:44 74.3 °F 61.7 °F 29.93 in North 0.3 mph 4 mph 64.9% 0.00 in 0 W/m2
01:49 74.2 °F 61.7 °F 29.93 in Calm   4 mph 65% 0.00 in 0 W/m2
01:54 74 °F 61.6 °F 29.92 in North 0.1 mph 4 mph 65.1% 0.00 in 0 W/m2
01:59 73.9 °F 61.8 °F 29.92 in North 0.6 mph 5 mph 66% 0.00 in 0 W/m2
02:04 73.7 °F 61.7 °F 29.92 in NNW 0.8 mph 5 mph 66% 0.00 in 0 W/m2
02:09 73.6 °F 61.6 °F 29.92 in NW 0.9 mph 11 mph 66.1% 0.00 in 0 W/m2
02:14 73.5 °F 61.9 °F 29.92 in WNW 0.5 mph 11 mph 67% 0.00 in 0 W/m2
02:19 73.4 °F 61.8 °F 29.92 in NW 0.5 mph 11 mph 67% 0.00 in 0 W/m2
02:24 73.3 °F 61.7 °F 29.92 in Calm   11 mph 67.2% 0.00 in 0 W/m2
02:29 73.1 °F 61.9 °F 29.91 in Calm   11 mph 68% 0.00 in 0 W/m2
02:34 73 °F 61.8 °F 29.91 in NW 1 mph 11 mph 68% 0.00 in 0 W/m2
02:39 72.8 °F 61.7 °F 29.91 in Calm   6 mph 68% 0.00 in 0 W/m2
02:44 72.7 °F 61.9 °F 29.91 in Calm   6 mph 68.9% 0.00 in 0 W/m2
02:49 72.5 °F 61.8 °F 29.91 in Calm   6 mph 69% 0.00 in 0 W/m2
02:54 72.3 °F 61.8 °F 29.91 in Calm   6 mph 69.5% 0.00 in 0 W/m2
02:59 72.2 °F 61.8 °F 29.91 in NNW 0.3 mph 6 mph 70% 0.00 in 0 W/m2
03:04 72 °F 61.8 °F 29.90 in North 0.3 mph 6 mph 70.1% 0.00 in 0 W/m2
03:09 71.9 °F 62 °F 29.90 in Calm   4 mph 71% 0.00 in 0 W/m2
03:14 71.8 °F 61.9 °F 29.90 in Calm   4 mph 71% 0.00 in 0 W/m2
03:19 71.7 °F 61.9 °F 29.91 in North 0.2 mph 4 mph 71.4% 0.00 in 0 W/m2
03:24 71.6 °F 62.1 °F 29.91 in Calm   4 mph 72% 0.00 in 0 W/m2
03:29 71.5 °F 62 °F 29.91 in North 0.3 mph 4 mph 72% 0.00 in 0 W/m2
03:34 71.4 °F 62.2 °F 29.90 in Calm   4 mph 72.8% 0.00 in 0 W/m2
03:39 71.3 °F 62.2 °F 29.90 in North 0.3 mph 4 mph 73% 0.00 in 0 W/m2
03:44 71.2 °F 62.1 °F 29.90 in Calm   4 mph 73% 0.00 in 0 W/m2
03:49 71.1 °F 62 °F 29.90 in Calm   4 mph 73.1% 0.00 in 0 W/m2
03:54 71 °F 62.3 °F 29.90 in Calm   4 mph 74% 0.00 in 0 W/m2
03:59 70.9 °F 62.2 °F 29.90 in Calm   4 mph 74% 0.00 in 0 W/m2
04:00 70.8 °F 62.1 °F 29.90 in Calm   4 mph 74% 0.00 in 0 W/m2
04:09 70.6 °F 62.3 °F 29.90 in Calm     75% 0.00 in 0 W/m2
04:14 70.4 °F 62.2 °F 29.90 in Calm     75% 0.00 in 0 W/m2
04:19 70.3 °F 62.2 °F 29.90 in Calm     75.5% 0.00 in 0 W/m2
04:24 70.1 °F 62.2 °F 29.90 in Calm     76% 0.00 in 0 W/m2
04:29 69.9 °F 62 °F 29.90 in Calm     76% 0.00 in 0 W/m2
04:34 69.8 °F 62.2 °F 29.90 in Calm     76.7% 0.00 in 0 W/m2
04:39 69.6 °F 62.1 °F 29.90 in Calm     77% 0.00 in 0 W/m2
04:44 69.5 °F 62.1 °F 29.90 in North 0.1 mph 3 mph 77.3% 0.00 in 0 W/m2
04:49 69.4 °F 62.2 °F 29.90 in Calm   3 mph 78% 0.00 in 0 W/m2
04:54 69.3 °F 62.3 °F 29.90 in WNW 0.5 mph 7 mph 78.4% 0.00 in 0 W/m2
04:59 69.2 °F 62.4 °F 29.89 in NW 0.5 mph 7 mph 79% 0.00 in 0 W/m2
05:04 69.2 °F 62.4 °F 29.89 in NW 0.2 mph 7 mph 79% 0.00 in 0 W/m2
05:09 69.1 °F 62.3 °F 29.89 in NW 0.4 mph 4 mph 79% 0.00 in 0 W/m2
05:14 69 °F 62.3 °F 29.89 in NW 0.3 mph 4 mph 79.3% 0.00 in 0 W/m2
05:19 68.9 °F 62.5 °F 29.89 in NW 0.2 mph 5 mph 80% 0.00 in 0 W/m2
05:24 68.9 °F 62.5 °F 29.89 in Calm   5 mph 80.1% 0.00 in 0 W/m2
05:29 69 °F 62.6 °F 29.89 in Calm   5 mph 80.2% 0.00 in 0 W/m2
05:34 68.9 °F 62.5 °F 29.89 in Calm   5 mph 80% 0.00 in 7 W/m2
05:39 68.8 °F 62.5 °F 29.89 in Calm     80.2% 0.00 in 11 W/m2
05:44 68.8 °F 62.7 °F 29.89 in WNW 0.5 mph 5 mph 81% 0.00 in 12 W/m2
05:49 68.8 °F 62.8 °F 29.89 in Calm   5 mph 81% 0.00 in 18 W/m2
05:54 68.9 °F 62.9 °F 29.89 in Calm   5 mph 81.1% 0.00 in 21 W/m2
05:59 69 °F 63 °F 29.89 in Calm   5 mph 81.2% 0.00 in 25 W/m2
06:04 69.1 °F 63 °F 29.89 in Calm   5 mph 81% 0.00 in 30 W/m2
06:09 69.2 °F 63.1 °F 29.89 in Calm     81% 0.00 in 28 W/m2
06:14 69.2 °F 63.1 °F 29.89 in Calm     81% 0.00 in 30 W/m2
06:19 69.2 °F 63.2 °F 29.89 in Calm     81% 0.00 in 32 W/m2
06:24 69.4 °F 63.3 °F 29.89 in WNW 0.1 mph 3 mph 81% 0.00 in 39 W/m2
06:29 69.6 °F 63.5 °F 29.89 in Calm   3 mph 81% 0.00 in 42 W/m2
06:34 70 °F 63.9 °F 29.89 in Calm   3 mph 81% 0.00 in 46 W/m2
06:39 70.5 °F 64.4 °F 29.89 in Calm     81% 0.00 in 46 W/m2
06:44 71.1 °F 64.7 °F 29.89 in Calm     80% 0.00 in 49 W/m2
06:49 71.8 °F 64.9 °F 29.89 in Calm     78.8% 0.00 in 56 W/m2
06:54 72.6 °F 65.2 °F 29.89 in Calm     77.7% 0.00 in 56 W/m2
06:59 73.2 °F 65.5 °F 29.89 in Calm     76.9% 0.00 in 70 W/m2
07:04 73.8 °F 65.7 °F 29.89 in Calm     75.9% 0.00 in 74 W/m2
07:09 74.6 °F 66 °F 29.89 in Calm     74.7% 0.00 in 74 W/m2
07:14 75.4 °F 66.4 °F 29.89 in Calm     73.6% 0.00 in 130 W/m2
07:19 76 °F 66.2 °F 29.89 in Calm     71.8% 0.00 in 211 W/m2
07:24 76.5 °F 66.5 °F 29.89 in Calm     71.2% 0.00 in 262 W/m2
07:29 76.9 °F 66.8 °F 29.89 in Calm     70.8% 0.00 in 299 W/m2
07:34 77.2 °F 66.5 °F 29.89 in Calm     69.7% 0.00 in 315 W/m2
07:39 77.4 °F 66.3 °F 29.89 in Calm     68.7% 0.00 in 325 W/m2
07:44 77.8 °F 66.6 °F 29.89 in Calm   1 mph 68.4% 0.00 in 348 W/m2
07:49 78.2 °F 66.8 °F 29.88 in Calm   2 mph 68.1% 0.00 in 364 W/m2
07:54 78.7 °F 67.1 °F 29.89 in NNW 0.5 mph 4 mph 67.6% 0.00 in 410 W/m2
07:59 79.2 °F 67.1 °F 29.89 in NW 2.9 mph 12 mph 66.6% 0.00 in 446 W/m2
08:00 79.3 °F 66.5 °F 29.88 in NNE 5.7 mph 12 mph 65% 0.00 in 446 W/m2
08:09 79.7 °F 67.1 °F 29.88 in WNW 2.3 mph 10 mph 65.5% 0.00 in 527 W/m2
08:14 80.1 °F 67 °F 29.88 in WNW 2.6 mph 10 mph 64.3% 0.00 in 580 W/m2
08:19 80.5 °F 67.4 °F 29.88 in Calm   10 mph 64.5% 0.00 in 580 W/m2
08:24 80.7 °F 67 °F 29.88 in WNW 3.9 mph 10 mph 63.1% 0.00 in 503 W/m2
08:29 80.6 °F 66.6 °F 29.88 in NW 3.6 mph 10 mph 62.4% 0.00 in 489 W/m2
08:34 80.5 °F 66.9 °F 29.88 in NW 1.6 mph 10 mph 63.3% 0.00 in 517 W/m2
08:39 80.6 °F 66.6 °F 29.87 in WNW 3.7 mph 15 mph 62.5% 0.00 in 524 W/m2
08:44 80.7 °F 67.3 °F 29.87 in WNW 0.6 mph 15 mph 63.9% 0.00 in 519 W/m2
08:49 81 °F 67 °F 29.87 in WNW 3.5 mph 15 mph 62.6% 0.00 in 515 W/m2
08:54 81.1 °F 66.6 °F 29.87 in NW 2.9 mph 15 mph 61.4% 0.00 in 545 W/m2
08:59 81.3 °F 66.9 °F 29.87 in WNW 3.7 mph 15 mph 61.8% 0.00 in 527 W/m2
09:04 81.5 °F 66.8 °F 29.87 in WNW 3 mph 15 mph 61.1% 0.00 in 684 W/m2
09:09 81.8 °F 67 °F 29.87 in WNW 2.5 mph 10 mph 61% 0.00 in 636 W/m2
09:14 81.5 °F 66.4 °F 29.87 in NW 3.9 mph 14 mph 60.1% 0.00 in 272 W/m2
09:19 80.9 °F 66.1 °F 29.87 in WNW 4.4 mph 14 mph 60.8% 0.00 in 272 W/m2
09:24 80.2 °F 65.9 °F 29.87 in WNW 3.1 mph 14 mph 61.8% 0.00 in 193 W/m2
09:29 79.6 °F 65.8 °F 29.86 in West 3.2 mph 14 mph 62.7% 0.00 in 271 W/m2
09:34 79.2 °F 65.6 °F 29.86 in WNW 3.8 mph 14 mph 63% 0.00 in 782 W/m2
09:39 79.6 °F 66.3 °F 29.86 in NW 3 mph 15 mph 64% 0.00 in 782 W/m2
09:44 79.9 °F 65.5 °F 29.86 in NW 4.9 mph 15 mph 61.5% 0.00 in 401 W/m2
09:49 79.9 °F 65.5 °F 29.86 in WNW 6.2 mph 17 mph 61.6% 0.00 in 367 W/m2
09:54 79.8 °F 65.6 °F 29.85 in WNW 3.4 mph 17 mph 61.8% 0.00 in 285 W/m2
09:59 79.7 °F 65.6 °F 29.84 in WNW 2.8 mph 17 mph 62.1% 0.00 in 308 W/m2
10:04 79.7 °F 65.8 °F 29.84 in WNW 3.6 mph 17 mph 62.5% 0.00 in 264 W/m2
10:09 80 °F 65.8 °F 29.84 in WNW 5.6 mph 15 mph 62.1% 0.00 in 264 W/m2
10:14 80.2 °F 65.9 °F 29.84 in NNW 2.4 mph 15 mph 61.9% 0.00 in 838 W/m2
10:19 80.9 °F 66.6 °F 29.84 in WNW 4.2 mph 19 mph 61.9% 0.00 in 844 W/m2
10:24 81.7 °F 66.8 °F 29.84 in NW 4.2 mph 19 mph 60.6% 0.00 in 780 W/m2
10:29 82.5 °F 66.4 °F 29.84 in NW 4.8 mph 19 mph 58.4% 0.00 in 766 W/m2
10:34 83 °F 66.3 °F 29.83 in WNW 3.6 mph 19 mph 57.2% 0.00 in 809 W/m2
10:39 83.4 °F 66.5 °F 29.83 in WNW 6.9 mph 19 mph 56.9% 0.00 in 796 W/m2
10:44 83.3 °F 66.2 °F 29.83 in WNW 4.5 mph 19 mph 56.4% 0.00 in 833 W/m2
10:49 83.5 °F 66.3 °F 29.83 in WNW 6.4 mph 19 mph 56.2% 0.00 in 846 W/m2
10:54 83.7 °F 66.1 °F 29.82 in WNW 4.9 mph 19 mph 55.5% 0.00 in 868 W/m2
10:59 84.2 °F 67.1 °F 29.82 in NNW 2.2 mph 19 mph 56.6% 0.00 in 896 W/m2
11:04 84.9 °F 67.2 °F 29.82 in WNW 3 mph 19 mph 55.5% 0.00 in 896 W/m2
11:09 85.3 °F 67.3 °F 29.82 in WNW 2.6 mph 12 mph 54.9% 0.00 in 889 W/m2
11:14 85.5 °F 67.2 °F 29.82 in WNW 4.9 mph 13 mph 54.4% 0.00 in 933 W/m2
11:19 85.7 °F 67 °F 29.82 in WNW 4.7 mph 14 mph 53.7% 0.00 in 954 W/m2
11:24 85.9 °F 67.7 °F 29.82 in NW 2.5 mph 14 mph 54.6% 0.00 in 925 W/m2
11:29 86.2 °F 66.6 °F 29.82 in NW 4.8 mph 14 mph 52.2% 0.00 in 837 W/m2
11:34 86.1 °F 66.9 °F 29.82 in NW 2.5 mph 14 mph 52.8% 0.00 in 831 W/m2
11:39 85.9 °F 67 °F 29.82 in NW 3.5 mph 9 mph 53.4% 0.00 in 891 W/m2
11:44 86 °F 67.9 °F 29.81 in NW 2.2 mph 9 mph 55% 0.00 in 891 W/m2
11:49 86.1 °F 67.4 °F 29.81 in WNW 3.9 mph 10 mph 53.8% 0.00 in 896 W/m2
11:54 86.3 °F 67.4 °F 29.81 in NW 3 mph 10 mph 53.5% 0.00 in 932 W/m2
11:59 86.6 °F 67.6 °F 29.81 in WNW 1.4 mph 10 mph 53.3% 0.00 in 933 W/m2
12:00 86.7 °F 67.5 °F 29.81 in WNW 0.5 mph 10 mph 53% 0.00 in 911 W/m2
12:09 86.9 °F 67.3 °F 29.81 in WNW 3.7 mph 10 mph 52.2% 0.00 in 969 W/m2
12:14 87 °F 68 °F 29.81 in WNW 4.9 mph 15 mph 53.3% 0.00 in 1041 W/m2
12:19 86.9 °F 66.7 °F 29.81 in WNW 5.1 mph 15 mph 51.2% 0.00 in 492 W/m2
12:24 86.2 °F 66.1 °F 29.81 in WNW 6.3 mph 18 mph 51.2% 0.00 in 998 W/m2
12:29 86 °F 67.1 °F 29.81 in NW 2.1 mph 18 mph 53.4% 0.00 in 998 W/m2
12:34 86.4 °F 67.4 °F 29.81 in NW 6.7 mph 18 mph 53.3% 0.00 in 988 W/m2
12:39 86.6 °F 66.8 °F 29.81 in WNW 6.4 mph 14 mph 51.8% 0.00 in 1095 W/m2
12:44 86.6 °F 66.7 °F 29.81 in WNW 6.8 mph 17 mph 51.7% 0.00 in 1095 W/m2
12:49 86.1 °F 65.7 °F 29.81 in WNW 5.8 mph 23 mph 50.7% 0.00 in 1011 W/m2
12:51 85.7 °F 65.9 °F 29.81 in WNW 4.7 mph 23 mph 51.7% 0.00 in 1011 W/m2
13:00 86.2 °F 66.5 °F 29.81 in WNW 6 mph 23 mph 52% 0.00 in 855 W/m2
13:30 87.5 °F 67.2 °F 29.80 in WNW 4 mph 15 mph 51% 0.00 in 932 W/m2
14:30 85.3 °F 66.8 °F 29.78 in WNW 5 mph 19 mph 54% 0.00 in 384 W/m2
15:00 85.2 °F 67.2 °F 29.78 in NW 5 mph 16 mph 55% 0.00 in 296 W/m2
15:30 87.6 °F 67.3 °F 29.77 in NW 6 mph 21 mph 51% 0.00 in 684 W/m2
16:04 86.2 °F 67.1 °F 29.76 in North 4.4 mph 12 mph 53% 0.00 in 306 W/m2
16:09 86.4 °F 67.6 °F 29.77 in NW 5 mph 19 mph 53.6% 0.00 in 330 W/m2
16:14 86.3 °F 66.6 °F 29.77 in WNW 9.1 mph 19 mph 51.8% 0.00 in 279 W/m2
16:19 85.9 °F 66.8 °F 29.76 in WNW 4.6 mph 19 mph 52.9% 0.00 in 253 W/m2
16:24 85.7 °F 66.6 °F 29.77 in WNW 6.9 mph 20 mph 53% 0.00 in 262 W/m2
16:29 85.6 °F 66.6 °F 29.76 in WNW 8.8 mph 20 mph 53.1% 0.00 in 264 W/m2
16:34 85.8 °F 66.4 °F 29.77 in WNW 9.5 mph 21 mph 52.5% 0.00 in 237 W/m2
16:39 85.9 °F 65.8 °F 29.77 in NW 8.8 mph 33 mph 51.2% 0.00 in 209 W/m2
16:44 85.7 °F 65.7 °F 29.78 in WNW 9.5 mph 33 mph 51.3% 0.00 in 202 W/m2
16:49 85.4 °F 65.7 °F 29.78 in NW 5.7 mph 33 mph 51.8% 0.00 in 162 W/m2
16:54 85.2 °F 65.9 °F 29.78 in WNW 6.9 mph 33 mph 52.5% 0.00 in 197 W/m2
16:59 85.3 °F 66.1 °F 29.78 in WNW 7.2 mph 33 mph 52.6% 0.00 in 213 W/m2
17:04 85.4 °F 66 °F 29.78 in WNW 5.5 mph 33 mph 52.3% 0.00 in 190 W/m2
17:09 85.2 °F 65.7 °F 29.79 in WNW 7.1 mph 15 mph 52.2% 0.00 in 167 W/m2
17:14 84.8 °F 65.2 °F 29.79 in WNW 8.6 mph 23 mph 52% 0.00 in 149 W/m2
17:19 84.3 °F 65.2 °F 29.79 in NW 8.4 mph 23 mph 52.8% 0.00 in 134 W/m2
17:24 83.9 °F 65.2 °F 29.79 in NW 5.1 mph 23 mph 53.6% 0.00 in 139 W/m2
17:29 83.6 °F 65.2 °F 29.79 in NW 5.8 mph 23 mph 54% 0.00 in 128 W/m2
17:34 83.3 °F 65 °F 29.79 in WNW 6.5 mph 23 mph 54.2% 0.00 in 91 W/m2
17:39 83 °F 65.2 °F 29.80 in NW 5.6 mph 20 mph 55% 0.00 in 104 W/m2
17:44 82.8 °F 65.2 °F 29.80 in NNW 4 mph 20 mph 55.5% 0.00 in 90 W/m2
17:49 82.4 °F 66.2 °F 29.81 in NNE 3.6 mph 20 mph 58.2% 0.00 in 109 W/m2
17:54 81.2 °F 67 °F 29.82 in NNE 3.3 mph 20 mph 62.1% 0.00 in 121 W/m2
17:59 79.6 °F 67 °F 29.83 in NE 3.9 mph 20 mph 65.6% 0.00 in 137 W/m2
18:04 78.4 °F 67 °F 29.83 in NNW 3.2 mph 20 mph 68% 0.00 in 107 W/m2
18:09 77.5 °F 66.8 °F 29.83 in North 2.8 mph 16 mph 69.7% 0.00 in 93 W/m2
18:14 76.9 °F 66.6 °F 29.84 in NNW 3.7 mph 16 mph 70.7% 0.00 in 102 W/m2
18:19 76.4 °F 66.5 °F 29.84 in North 0.8 mph 16 mph 71.5% 0.00 in 69 W/m2
18:24 76 °F 66.5 °F 29.84 in NNW 2.6 mph 16 mph 72.3% 0.00 in 30 W/m2
18:29 75.7 °F 66.4 °F 29.84 in NNW 3.1 mph 16 mph 73% 0.00 in 62 W/m2
18:34 75.5 °F 66.4 °F 29.84 in NW 2 mph 16 mph 73.4% 0.00 in 76 W/m2
18:39 75.6 °F 66.4 °F 29.85 in NW 2.5 mph 12 mph 73.3% 0.00 in 69 W/m2
18:44 75.8 °F 66.3 °F 29.85 in NW 4.5 mph 15 mph 72.5% 0.00 in 49 W/m2
18:49 75.8 °F 66.1 °F 29.86 in NW 2.8 mph 15 mph 72% 0.00 in 19 W/m2
18:54 75.7 °F 66.2 °F 29.86 in NW 4.3 mph 15 mph 72.5% 0.00 in 23 W/m2
18:59 75.6 °F 66.5 °F 29.86 in NW 3.6 mph 15 mph 73.3% 0.00 in 32 W/m2
19:04 75.6 °F 66.4 °F 29.87 in NNW 3.3 mph 15 mph 73.3% 0.00 in 35 W/m2
19:09 75.5 °F 66.1 °F 29.88 in NNW 3.1 mph 13 mph 72.6% 0.00 in 33 W/m2
19:14 75.5 °F 66.1 °F 29.88 in NNW 1.6 mph 13 mph 72.5% 0.00 in 39 W/m2
19:19 75.5 °F 65.2 °F 29.89 in NNW 2.9 mph 13 mph 70.5% 0.00 in 40 W/m2
19:24 75.4 °F 65.3 °F 29.89 in NNW 3.6 mph 15 mph 70.8% 0.00 in 33 W/m2
19:29 75.2 °F 65.2 °F 29.89 in North 2.3 mph 15 mph 71% 0.00 in 21 W/m2
19:34 75 °F 64.9 °F 29.90 in NW 2.6 mph 15 mph 71% 0.00 in 19 W/m2
19:39 74.8 °F 64.8 °F 29.90 in NNW 1.5 mph 12 mph 71% 0.00 in 16 W/m2
19:44 74.6 °F 64.4 °F 29.91 in NNW 2.7 mph 14 mph 70.6% 0.00 in 12 W/m2
19:49 74.2 °F 63.4 °F 29.91 in ENE 2 mph 14 mph 69.1% 0.00 in 11 W/m2
19:54 73.5 °F 62.5 °F 29.92 in ENE 2.6 mph 14 mph 68.5% 0.00 in 9 W/m2
19:59 72.9 °F 61.7 °F 29.92 in ENE 1.9 mph 14 mph 67.9% 0.00 in 7 W/m2
20:04 72.2 °F 61.1 °F 29.93 in NE 1.4 mph 4 mph 68% 0.00 in 0 W/m2
20:09 71.9 °F 60.4 °F 29.93 in ENE 0.9 mph 10 mph 67.2% 0.00 in 0 W/m2
20:14 71.4 °F 60 °F 29.94 in NNE 0.9 mph 10 mph 67.3% 0.00 in 0 W/m2
20:19 71 °F 59.9 °F 29.94 in NNE 0.9 mph 10 mph 68% 0.00 in 0 W/m2
20:24 70.7 °F 59.6 °F 29.95 in ENE 1.5 mph 10 mph 68% 0.00 in 0 W/m2
20:29 70.2 °F 59 °F 29.95 in ENE 3 mph 15 mph 67.6% 0.00 in 0 W/m2
20:34 69.8 °F 58.4 °F 29.95 in ENE 2.9 mph 15 mph 67% 0.00 in 0 W/m2
20:39 69.5 °F 58.1 °F 29.96 in NE 2.3 mph 13 mph 67% 0.00 in 0 W/m2
20:44 69.3 °F 57.9 °F 29.96 in ENE 2.4 mph 13 mph 67% 0.00 in 0 W/m2
20:49 69.1 °F 57.7 °F 29.96 in NNW 1.7 mph 13 mph 67% 0.00 in 0 W/m2
20:54 68.9 °F 57.5 °F 29.97 in NNW 1.9 mph 13 mph 67% 0.00 in 0 W/m2
20:59 68.7 °F 57.3 °F 29.97 in NNE 0.7 mph 13 mph 67% 0.00 in 0 W/m2
21:04 68.5 °F 57.1 °F 29.98 in NNW 0.9 mph 13 mph 67% 0.00 in 0 W/m2
21:09 68.3 °F 56.8 °F 29.98 in ENE 1.2 mph 9 mph 66.7% 0.00 in 0 W/m2
21:14 68.2 °F 56.8 °F 29.99 in NNE 1.4 mph 9 mph 67% 0.00 in 0 W/m2
21:19 68 °F 56.2 °F 29.99 in North 2.7 mph 15 mph 66.1% 0.00 in 0 W/m2
21:24 67.7 °F 56 °F 30.00 in NNW 1.8 mph 15 mph 66% 0.00 in 0 W/m2
21:29 67.6 °F 55.8 °F 30.00 in NNE 1.1 mph 15 mph 66% 0.00 in 0 W/m2
21:34 67.4 °F 55.5 °F 30.00 in ENE 0.8 mph 15 mph 65.6% 0.00 in 0 W/m2
21:39 67.2 °F 55.4 °F 30.01 in NNE 0.6 mph 5 mph 66% 0.00 in 0 W/m2
21:44 67 °F 55.3 °F 30.01 in NW 1.8 mph 10 mph 66% 0.00 in 0 W/m2
21:49 66.8 °F 55.1 °F 30.02 in ENE 1.8 mph 10 mph 66% 0.00 in 0 W/m2
21:54 66.6 °F 54.7 °F 30.02 in ENE 1.8 mph 12 mph 65.4% 0.00 in 0 W/m2
21:59 66.4 °F 54.5 °F 30.02 in NNE 1 mph 12 mph 65.6% 0.00 in 0 W/m2
22:04 66.2 °F 54.5 °F 30.03 in NNW 0.4 mph 12 mph 66% 0.00 in 0 W/m2
22:09 66 °F 54.3 °F 30.03 in NNE 1.4 mph 12 mph 66% 0.00 in 0 W/m2
22:14 65.8 °F 54.2 °F 30.03 in NNW 1.1 mph 12 mph 66% 0.00 in 0 W/m2
22:19 65.7 °F 54 °F 30.03 in NNE 1.4 mph 14 mph 66% 0.00 in 0 W/m2
22:24 65.6 °F 53.9 °F 30.03 in East 0.7 mph 14 mph 66% 0.00 in 0 W/m2
22:29 65.4 °F 53.7 °F 30.04 in North 1.9 mph 14 mph 66% 0.00 in 0 W/m2
22:34 65.2 °F 53.6 °F 30.04 in North 2.5 mph 18 mph 66% 0.00 in 0 W/m2
22:39 65 °F 53.4 °F 30.05 in NNW 1.2 mph 18 mph 66% 0.00 in 0 W/m2
22:44 64.9 °F 53.1 °F 30.05 in NNW 3.1 mph 18 mph 65.6% 0.00 in 0 W/m2
22:49 64.8 °F 52.7 °F 30.05 in NE 1.9 mph 18 mph 64.9% 0.00 in 0 W/m2
22:54 64.6 °F 51.5 °F 30.05 in ENE 1.8 mph 18 mph 62.5% 0.00 in 0 W/m2
22:59 64.5 °F 50.5 °F 30.06 in NE 1.6 mph 18 mph 60.4% 0.00 in 0 W/m2
23:04 64.3 °F 49.9 °F 30.06 in NE 2 mph 18 mph 59.4% 0.00 in 0 W/m2
23:09 64.2 °F 49.3 °F 30.06 in ENE 1.5 mph 11 mph 58.5% 0.00 in 0 W/m2
23:14 64 °F 48.6 °F 30.07 in ENE 2.2 mph 11 mph 57.3% 0.00 in 0 W/m2
23:19 63.9 °F 48.5 °F 30.06 in NW 0.9 mph 11 mph 57.1% 0.00 in 0 W/m2
23:24 63.8 °F 48.5 °F 30.07 in NNE 1.8 mph 14 mph 57.3% 0.00 in 0 W/m2
23:29 63.7 °F 48.5 °F 30.07 in NE 1.1 mph 14 mph 57.7% 0.00 in 0 W/m2
23:34 63.6 °F 48.4 °F 30.07 in North 0.5 mph 14 mph 57.7% 0.00 in 0 W/m2
23:39 63.4 °F 48 °F 30.07 in East 0.7 mph 11 mph 57.1% 0.00 in 0 W/m2
23:44 63.3 °F 48.2 °F 30.07 in North 0.4 mph 11 mph 57.8% 0.00 in 0 W/m2
23:49 63.1 °F 48.1 °F 30.07 in NE 0.3 mph 11 mph 58% 0.00 in 0 W/m2
23:54 63 °F 48.3 °F 30.07 in NNW 0.7 mph 11 mph 58.7% 0.00 in 0 W/m2
23:59 62.8 °F 47.9 °F 30.07 in NNW 0.5 mph 11 mph 58.2% 0.00 in 0 W/m2
Hartford County Weather
Compliments of Weather Underground - 2 mb